createdAt,value
2019-03-21T00:01:36.386Z,100.00
2019-03-21T00:06:40.933Z,100.00
2019-03-21T00:11:55.706Z,100.00
2019-03-21T00:17:00.377Z,100.00
2019-03-21T00:22:05.502Z,100.00
2019-03-21T00:27:09.987Z,100.00
2019-03-21T00:32:14.930Z,100.00
2019-03-21T00:37:19.530Z,100.00
2019-03-21T00:42:23.996Z,100.00
2019-03-21T00:47:28.612Z,100.00
2019-03-21T00:57:44.253Z,100.00
2019-03-21T01:02:48.749Z,100.00
2019-03-21T01:07:53.287Z,100.00
2019-03-21T01:12:57.807Z,100.00
2019-03-21T01:18:02.338Z,100.00
2019-03-21T01:23:07.798Z,100.00
2019-03-21T01:28:12.273Z,100.00
2019-03-21T01:33:17.142Z,100.00
2019-03-21T01:38:21.678Z,100.00
2019-03-21T01:43:26.157Z,100.00
2019-03-21T01:48:30.683Z,100.00
2019-03-21T01:53:35.213Z,100.00
2019-03-21T01:58:39.748Z,100.00
2019-03-21T02:03:44.263Z,100.00
2019-03-21T02:08:48.774Z,100.00
2019-03-21T02:13:53.347Z,100.00
2019-03-21T02:18:57.833Z,100.00
2019-03-21T02:24:02.470Z,100.00
2019-03-21T02:29:06.997Z,100.00
2019-03-21T02:34:11.653Z,100.00
2019-03-21T02:39:16.190Z,100.00
2019-03-21T02:44:20.662Z,100.00
2019-03-21T02:49:25.105Z,100.00
2019-03-21T02:54:29.594Z,100.00
2019-03-21T02:59:34.140Z,100.00
2019-03-21T03:09:49.753Z,100.00
2019-03-21T03:14:54.203Z,100.00
2019-03-21T03:19:58.797Z,100.00
2019-03-21T03:25:03.561Z,100.00
2019-03-21T03:30:11.379Z,100.00
2019-03-21T03:35:15.916Z,100.00
2019-03-21T03:40:24.029Z,100.00
2019-03-21T03:45:37.249Z,100.00
2019-03-21T03:50:37.202Z,100.00
2019-03-21T03:55:41.796Z,100.00
2019-03-21T04:00:46.243Z,100.00
2019-03-21T04:05:50.770Z,100.00
2019-03-21T04:10:55.357Z,100.00
2019-03-21T04:16:00.155Z,100.00
2019-03-21T04:21:05.158Z,100.00
2019-03-21T04:26:17.407Z,100.00
2019-03-21T04:31:21.886Z,100.00
2019-03-21T04:36:26.528Z,100.00
2019-03-21T04:41:31.022Z,100.00
2019-03-21T04:46:35.483Z,100.00
2019-03-21T04:51:40.011Z,100.00
2019-03-21T04:56:44.669Z,100.00
2019-03-21T05:01:49.220Z,100.00
2019-03-21T05:06:53.681Z,100.00
2019-03-21T05:11:58.166Z,100.00
2019-03-21T05:17:02.711Z,100.00
2019-03-21T05:22:07.290Z,100.00
2019-03-21T05:27:12.835Z,100.00
2019-03-21T05:32:17.316Z,100.00
2019-03-21T05:37:21.876Z,100.00
2019-03-21T05:42:26.563Z,100.00
2019-03-21T05:47:31.041Z,100.00
2019-03-21T05:52:35.581Z,100.00
2019-03-21T05:57:40.061Z,100.00
2019-03-21T06:02:44.610Z,100.00
2019-03-21T06:07:53.422Z,100.00
2019-03-21T06:12:58.086Z,100.00
2019-03-21T06:18:13.408Z,100.00
2019-03-21T06:23:35.070Z,100.00
2019-03-21T06:28:39.676Z,100.00
2019-03-21T06:33:44.240Z,100.00
2019-03-21T06:38:48.823Z,100.00
2019-03-21T06:43:53.300Z,100.00
2019-03-21T06:48:57.874Z,100.00
2019-03-21T06:54:02.430Z,100.00
2019-03-21T06:59:07.026Z,100.00
2019-03-21T07:04:11.581Z,100.00
2019-03-21T07:09:16.095Z,100.00
2019-03-21T07:14:20.690Z,100.00
2019-03-21T07:19:25.316Z,100.00
2019-03-21T07:24:30.016Z,100.00
2019-03-21T07:29:34.913Z,100.00
2019-03-21T07:34:39.450Z,100.00
2019-03-21T07:39:44.050Z,100.00
2019-03-21T07:44:50.574Z,100.00
2019-03-21T07:49:55.075Z,100.00
2019-03-21T07:54:59.582Z,100.00
2019-03-21T08:00:06.602Z,100.00
2019-03-21T08:05:11.856Z,100.00
2019-03-21T08:10:16.351Z,100.00
2019-03-21T08:15:20.852Z,100.00
2019-03-21T08:20:25.425Z,100.00
2019-03-21T08:25:30.065Z,100.00
2019-03-21T08:30:36.172Z,100.00
2019-03-21T08:35:40.645Z,100.00
2019-03-21T08:40:45.431Z,100.00
2019-03-21T08:45:49.987Z,100.00
2019-03-21T08:50:54.531Z,100.00
2019-03-21T08:55:59.228Z,100.00
2019-03-21T09:01:03.821Z,100.00
2019-03-21T09:06:08.362Z,100.00
2019-03-21T09:11:13.167Z,100.00
2019-03-21T09:16:17.698Z,100.00
2019-03-21T09:21:22.166Z,100.00
2019-03-21T09:26:26.754Z,100.00
2019-03-21T09:31:31.404Z,100.00
2019-03-21T09:36:35.992Z,100.00
2019-03-21T09:41:40.507Z,100.00
2019-03-21T09:46:50.734Z,100.00
2019-03-21T09:51:51.552Z,100.00
2019-03-21T09:56:56.056Z,100.00
2019-03-21T10:02:00.986Z,100.00
2019-03-21T10:07:05.517Z,100.00
2019-03-21T10:12:10.452Z,100.00
2019-03-21T10:17:15.099Z,100.00
2019-03-21T10:22:22.786Z,100.00
2019-03-21T10:27:27.352Z,100.00
2019-03-21T10:32:32.827Z,100.00
2019-03-21T10:37:37.674Z,100.00
2019-03-21T10:42:42.417Z,100.00
2019-03-21T10:47:46.918Z,100.00
2019-03-21T10:52:51.447Z,100.00
2019-03-21T10:57:56.179Z,100.00
2019-03-21T11:03:00.717Z,100.00
2019-03-21T11:08:05.954Z,100.00
2019-03-21T11:13:13.034Z,100.00
2019-03-21T11:18:17.560Z,100.00
2019-03-21T11:23:22.381Z,100.00
2019-03-21T11:28:27.174Z,100.00
2019-03-21T11:33:31.734Z,100.00
2019-03-21T11:38:36.542Z,100.00
2019-03-21T11:43:41.061Z,100.00
2019-03-21T11:48:45.977Z,100.00
2019-03-21T11:53:50.462Z,100.00
2019-03-21T11:58:54.973Z,100.00
2019-03-21T12:03:59.464Z,100.00
2019-03-21T12:09:05.477Z,100.00
2019-03-21T12:14:10.107Z,100.00
2019-03-21T12:19:14.589Z,100.00
2019-03-21T12:24:19.137Z,100.00
2019-03-21T12:29:24.177Z,100.00
2019-03-21T12:34:28.968Z,98.67
2019-03-21T12:39:33.512Z,96.55
2019-03-21T12:44:37.944Z,94.72
2019-03-21T12:49:42.487Z,95.57
2019-03-21T12:54:46.982Z,94.63
2019-03-21T12:59:51.387Z,94.90
2019-03-21T13:04:55.936Z,95.13
2019-03-21T13:10:01.403Z,95.46
2019-03-21T13:15:06.657Z,96.28
2019-03-21T13:20:11.132Z,96.59
2019-03-21T13:25:15.686Z,93.12
2019-03-21T13:30:20.471Z,90.23
2019-03-21T13:35:32.522Z,89.02
2019-03-21T13:40:31.189Z,87.40
2019-03-21T13:45:36.093Z,85.56
2019-03-21T13:50:42.397Z,86.43
2019-03-21T13:55:46.863Z,87.48
2019-03-21T14:00:51.373Z,88.45
2019-03-21T14:05:56.087Z,88.10
2019-03-21T14:11:00.672Z,89.10
2019-03-21T14:16:05.153Z,87.78
2019-03-21T14:21:09.745Z,88.04
2019-03-21T14:26:14.259Z,86.17
2019-03-21T14:31:20.283Z,87.41
2019-03-21T14:36:25.148Z,86.87
2019-03-21T14:41:29.618Z,86.72
2019-03-21T14:46:39.913Z,85.40
2019-03-21T14:51:44.461Z,86.44
2019-03-21T14:56:48.930Z,85.80
2019-03-21T15:01:53.492Z,85.32
2019-03-21T15:06:57.956Z,85.26
2019-03-21T15:12:02.487Z,84.68
2019-03-21T15:17:07.093Z,85.90
2019-03-21T15:22:14.230Z,86.72
2019-03-21T15:27:18.758Z,87.29
2019-03-21T15:32:23.179Z,88.57
2019-03-21T15:37:27.862Z,88.67
2019-03-21T15:42:32.362Z,90.17
2019-03-21T15:47:37.147Z,89.91
2019-03-21T15:52:41.728Z,90.54
2019-03-21T15:57:46.432Z,91.10
2019-03-21T16:02:50.953Z,92.20
2019-03-21T16:07:55.715Z,92.20
2019-03-21T16:13:00.491Z,92.48
2019-03-21T16:18:05.233Z,91.06
2019-03-21T16:23:09.888Z,91.06
2019-03-21T16:28:15.395Z,91.11
2019-03-21T16:33:19.942Z,91.11
2019-03-21T16:38:25.433Z,91.01
2019-03-21T16:43:29.898Z,90.92
2019-03-21T16:48:34.372Z,92.01
2019-03-21T16:53:38.852Z,92.70
2019-03-21T16:58:43.802Z,92.89
2019-03-21T17:03:49.637Z,93.58
2019-03-21T17:08:55.151Z,93.58
2019-03-21T17:13:59.656Z,94.11
2019-03-21T17:19:04.137Z,94.64
2019-03-21T17:24:09.726Z,94.98
2019-03-21T17:29:15.242Z,96.93
2019-03-21T17:34:19.698Z,96.93
2019-03-21T17:39:25.513Z,97.68
2019-03-21T17:44:29.978Z,98.17
2019-03-21T17:49:34.820Z,98.50
2019-03-21T17:54:41.691Z,99.20
2019-03-21T17:59:45.803Z,99.65
2019-03-21T18:04:50.810Z,99.92
2019-03-21T18:09:55.379Z,99.98
2019-03-21T18:14:59.882Z,100.00
2019-03-21T18:20:05.133Z,99.83
2019-03-21T18:25:09.782Z,99.96
2019-03-21T18:30:14.642Z,100.00
2019-03-21T18:35:19.186Z,100.00
2019-03-21T18:40:23.709Z,100.00
2019-03-21T18:45:28.188Z,100.00
2019-03-21T18:50:32.905Z,100.00
2019-03-21T18:55:37.386Z,100.00
2019-03-21T19:00:42.210Z,100.00
2019-03-21T19:05:47.087Z,100.00
2019-03-21T19:10:51.665Z,100.00
2019-03-21T19:15:56.661Z,100.00
2019-03-21T19:21:01.226Z,100.00
2019-03-21T19:26:05.786Z,100.00
2019-03-21T19:31:10.846Z,100.00
2019-03-21T19:36:15.745Z,100.00
2019-03-21T19:41:20.286Z,100.00
2019-03-21T19:46:24.874Z,100.00
2019-03-21T19:51:29.717Z,100.00
2019-03-21T19:56:34.345Z,100.00
2019-03-21T20:01:39.327Z,100.00
2019-03-21T20:06:43.934Z,100.00
2019-03-21T20:11:48.518Z,100.00
2019-03-21T20:16:53.456Z,100.00
2019-03-21T20:21:58.308Z,100.00
2019-03-21T20:27:02.962Z,100.00
2019-03-21T20:32:07.526Z,100.00
2019-03-21T20:37:12.086Z,100.00
2019-03-21T20:42:16.766Z,100.00
2019-03-21T20:47:21.266Z,100.00
2019-03-21T20:52:26.035Z,100.00
2019-03-21T20:57:30.586Z,100.00
2019-03-21T21:02:35.110Z,100.00
2019-03-21T21:07:39.626Z,100.00
2019-03-21T21:12:44.288Z,100.00
2019-03-21T21:17:48.875Z,100.00
2019-03-21T21:22:53.573Z,100.00
2019-03-21T21:27:58.105Z,100.00
2019-03-21T21:33:02.826Z,100.00
2019-03-21T21:38:07.385Z,100.00
2019-03-21T21:43:12.865Z,100.00
2019-03-21T21:48:17.405Z,100.00
2019-03-21T21:53:21.906Z,99.47
2019-03-21T21:58:26.534Z,98.55
2019-03-21T22:03:31.429Z,97.79
2019-03-21T22:08:36.005Z,96.78
2019-03-21T22:13:40.497Z,96.08
2019-03-21T22:18:45.066Z,96.76
2019-03-21T22:23:50.100Z,97.38
2019-03-21T22:28:54.629Z,97.89
2019-03-21T22:33:59.203Z,97.83
2019-03-21T22:39:05.109Z,97.80
2019-03-21T22:44:09.726Z,97.97
2019-03-21T22:49:14.226Z,97.65
2019-03-21T22:54:18.786Z,97.42
2019-03-21T22:59:23.534Z,97.81
2019-03-21T23:04:28.065Z,98.69
2019-03-21T23:09:32.882Z,99.32
2019-03-21T23:14:37.445Z,99.52
2019-03-21T23:19:41.977Z,99.23
2019-03-21T23:24:49.064Z,98.18
2019-03-21T23:29:52.726Z,97.09
2019-03-21T23:34:57.333Z,97.27
2019-03-21T23:40:01.840Z,98.23
2019-03-21T23:45:07.297Z,99.49
2019-03-21T23:50:12.073Z,100.00
2019-03-21T23:55:16.625Z,100.00
